Prince Albert Glass Field
CYPA : rendu visible

Aérodrome :











RETROUVEZ-NOUS SUR...

 
LOGIN :

S'inscrire | Disclaimer

   EN    FR    IT 

 









Légende :    VFR   VFR Marginal   IFR   IFR Intensif   IFR Très Intensif
Visi : 
Plafond : 
>= 8 km
>= 3000ft
5 à 8 km
1000 à 3000 ft
1500m à 5 km
500 à 1000 ft
800 à 1500m
200 à 500 ft
< 800m
< 200 ft
Symboles :   Orages  Brouillard  Fortes neiges  Fortes précipitations  Vent > 20 kt







- Altitude de l'aérodrome : 1405 ft
- Code IATA : YPA


CYPA - Prince Albert Glass Field

DERNIER METAR :
  • 200000Z 08008KT 060V160 15SM FEW070 16/M02 A3017 RMK AC1 AC TR SLP236 DENSITY ALT 1600FT

METARs EXPIRÉS :
  • 192300Z 11010KT 15SM FEW070 16/M02 A3019 RMK AC1 AC TR SLP240 DENSITY ALT 1600FT
  • 192200Z 08005KT 060V170 15SM FEW070 16/M02 A3020 RMK CU1 SLP243 DENSITY ALT 1600FT

TAF TAF CYPA
Valide du 19 à 19h jusqu'au 20 à 07h UTC


191838Z 1919/2007 10008KT P6SM FEW050 RMK NXT FCST BY 200100Z
FIR CZWG / Amérique du Nord



MET'MAP, la Météo Aéronautique d'un coup d'oeil ! - Copyright ORBIFLY Décembre 2007 - Disclaimer

ORBIFLY MET'MAP TEAM :

Programmation & Développement : Alexandra Zaïnal
Conception & Développement : Baudouin d'Aumeries
Co-Programmation & Développement : Marc-Olivier Méhu
Soutien technique & logistique : Manuel Goepfert

Contact : metmap@orbifly.com




SOURCES & CREDITS :

   NOAA       Earth
Advisory